ZTB weather

Tête-à-la-Baleine Airport
Tête-à-la-Baleine, Quebec, Canada

Public forecast

Using degrees Celsius for public forecast. Weather courtesy of forecast.io.

METAR (pilot weather report)

Closest report is Lourdes de Blanc Sablon Airport, 94.9 nm (175.8 km) ENE. Retrieved 2019/09/19 09:06 UTC (53 minutes ago):

CYBX 190906Z 21002KT 3SM BR SCT003 BKN090 OVC100 06/06 A3006 RMK ST4AC3AC1 SLP184

TAF (pilot weather forecast)

Closest forecast is Lourdes de Blanc Sablon Airport, 94.9 nm (175.8 km) ENE. Retrieved 2019/09/19 08:00 UTC (2 hours ago):

TAF CYBX 190738Z 1908/1920 27005KT 1/4SM FG VV002 TEMPO 1909/1913 6SM BR SCT002 BKN090 FM191300 24010KT P6SM FEW100 BECMG 1915/1917 24015G25KT RMK NXT FCST BY 191400Z